sensor_id;sensor_type;location;lat;lon;timestamp;pressure;altitude;pressure_sealevel;temperature;humidity
52653;BME280;39353;42.864;12.014;2022-09-21T00:02:22;97545.41;;;23.89;43.69
52653;BME280;39353;42.864;12.014;2022-09-21T00:04:49;97546.13;;;23.89;43.66
52653;BME280;39353;42.864;12.014;2022-09-21T00:07:17;97544.37;;;23.89;43.68
52653;BME280;39353;42.864;12.014;2022-09-21T00:09:44;97541.34;;;23.88;43.86
52653;BME280;39353;42.864;12.014;2022-09-21T00:12:11;97538.11;;;23.88;43.73
52653;BME280;39353;42.864;12.014;2022-09-21T00:14:52;97536.79;;;23.88;43.70
52653;BME280;39353;42.864;12.014;2022-09-21T00:17:35;97535.63;;;23.88;43.79
52653;BME280;39353;42.864;12.014;2022-09-21T00:20:04;97532.33;;;23.88;43.79
52653;BME280;39353;42.864;12.014;2022-09-21T00:22:32;97533.17;;;23.88;43.80
52653;BME280;39353;42.864;12.014;2022-09-21T00:25:15;97535.48;;;23.89;43.89
52653;BME280;39353;42.864;12.014;2022-09-21T00:27:57;97538.32;;;23.88;43.88
52653;BME280;39353;42.864;12.014;2022-09-21T00:30:40;97536.67;;;23.88;43.96
52653;BME280;39353;42.864;12.014;2022-09-21T00:33:21;97539.86;;;23.89;43.93
52653;BME280;39353;42.864;12.014;2022-09-21T00:36:10;97541.15;;;23.90;43.93
52653;BME280;39353;42.864;12.014;2022-09-21T00:38:38;97540.62;;;23.91;43.92
52653;BME280;39353;42.864;12.014;2022-09-21T00:41:19;97542.02;;;23.92;44.06
52653;BME280;39353;42.864;12.014;2022-09-21T00:47:09;97540.45;;;23.93;44.03
52653;BME280;39353;42.864;12.014;2022-09-21T00:49:40;97539.98;;;23.95;44.06
52653;BME280;39353;42.864;12.014;2022-09-21T00:52:10;97539.48;;;23.94;44.07
52653;BME280;39353;42.864;12.014;2022-09-21T00:54:47;97542.83;;;23.94;44.11
52653;BME280;39353;42.864;12.014;2022-09-21T00:57:32;97538.55;;;23.93;44.25
52653;BME280;39353;42.864;12.014;2022-09-21T01:00:15;97539.18;;;23.93;44.18
52653;BME280;39353;42.864;12.014;2022-09-21T01:02:57;97536.64;;;23.92;44.27
52653;BME280;39353;42.864;12.014;2022-09-21T01:05:27;97535.05;;;23.91;44.25
52653;BME280;39353;42.864;12.014;2022-09-21T01:08:01;97533.99;;;23.91;44.30
52653;BME280;39353;42.864;12.014;2022-09-21T01:11:10;97533.86;;;23.92;44.41
52653;BME280;39353;42.864;12.014;2022-09-21T01:17:20;97535.35;;;23.93;44.36
52653;BME280;39353;42.864;12.014;2022-09-21T01:20:48;97538.08;;;23.92;44.42
52653;BME280;39353;42.864;12.014;2022-09-21T01:30:08;97548.51;;;23.91;44.37
52653;BME280;39353;42.864;12.014;2022-09-21T01:33:12;97547.55;;;23.90;44.30
52653;BME280;39353;42.864;12.014;2022-09-21T01:35:54;97542.55;;;23.89;44.51
52653;BME280;39353;42.864;12.014;2022-09-21T01:38:31;97544.80;;;23.88;44.38
52653;BME280;39353;42.864;12.014;2022-09-21T01:41:04;97545.85;;;23.89;44.41
52653;BME280;39353;42.864;12.014;2022-09-21T01:43:43;97544.58;;;23.89;44.39
52653;BME280;39353;42.864;12.014;2022-09-21T01:46:31;97543.69;;;23.89;44.40
52653;BME280;39353;42.864;12.014;2022-09-21T01:49:10;97541.13;;;23.89;44.52
52653;BME280;39353;42.864;12.014;2022-09-21T01:52:01;97537.06;;;23.88;44.52
52653;BME280;39353;42.864;12.014;2022-09-21T01:54:51;97533.42;;;23.88;44.54
52653;BME280;39353;42.864;12.014;2022-09-21T02:00:15;97533.44;;;23.88;44.60
52653;BME280;39353;42.864;12.014;2022-09-21T02:03:09;97534.45;;;23.87;44.65
52653;BME280;39353;42.864;12.014;2022-09-21T02:05:52;97530.63;;;23.87;44.51
52653;BME280;39353;42.864;12.014;2022-09-21T02:08:35;97526.08;;;23.87;44.61
52653;BME280;39353;42.864;12.014;2022-09-21T02:11:05;97519.44;;;23.87;44.53
52653;BME280;39353;42.864;12.014;2022-09-21T02:13:50;97521.58;;;23.86;44.57
52653;BME280;39353;42.864;12.014;2022-09-21T02:16:48;97519.66;;;23.87;44.57
52653;BME280;39353;42.864;12.014;2022-09-21T02:19:45;97520.36;;;23.86;44.66
52653;BME280;39353;42.864;12.014;2022-09-21T02:22:40;97523.94;;;23.86;44.51
52653;BME280;39353;42.864;12.014;2022-09-21T02:25:18;97523.21;;;23.87;44.55
52653;BME280;39353;42.864;12.014;2022-09-21T02:28:00;97524.91;;;23.86;44.70
52653;BME280;39353;42.864;12.014;2022-09-21T02:30:34;97522.77;;;23.86;44.61
52653;BME280;39353;42.864;12.014;2022-09-21T02:33:34;97522.70;;;23.85;44.70
52653;BME280;39353;42.864;12.014;2022-09-21T02:36:15;97526.65;;;23.86;44.66
52653;BME280;39353;42.864;12.014;2022-09-21T02:38:55;97524.23;;;23.86;44.67
52653;BME280;39353;42.864;12.014;2022-09-21T02:44:18;97526.38;;;23.86;44.72
52653;BME280;39353;42.864;12.014;2022-09-21T02:47:23;97520.61;;;23.86;44.77
52653;BME280;39353;42.864;12.014;2022-09-21T02:50:00;97524.40;;;23.86;44.75
52653;BME280;39353;42.864;12.014;2022-09-21T02:52:32;97522.48;;;23.85;44.58
52653;BME280;39353;42.864;12.014;2022-09-21T02:55:02;97527.20;;;23.86;44.65
52653;BME280;39353;42.864;12.014;2022-09-21T02:57:47;97530.54;;;23.85;44.59
52653;BME280;39353;42.864;12.014;2022-09-21T03:00:16;97530.91;;;23.85;44.62
52653;BME280;39353;42.864;12.014;2022-09-21T03:02:44;97528.34;;;23.85;44.69
52653;BME280;39353;42.864;12.014;2022-09-21T03:05:26;97534.98;;;23.85;44.62
52653;BME280;39353;42.864;12.014;2022-09-21T03:07:54;97535.57;;;23.85;44.70
52653;BME280;39353;42.864;12.014;2022-09-21T03:10:21;97538.02;;;23.84;44.72
52653;BME280;39353;42.864;12.014;2022-09-21T03:12:50;97540.76;;;23.84;44.59
52653;BME280;39353;42.864;12.014;2022-09-21T03:15:38;97540.53;;;23.83;44.66
52653;BME280;39353;42.864;12.014;2022-09-21T03:18:08;97536.80;;;23.83;44.68
52653;BME280;39353;42.864;12.014;2022-09-21T03:20:51;97539.11;;;23.83;44.63
52653;BME280;39353;42.864;12.014;2022-09-21T03:23:32;97540.42;;;23.83;44.81
52653;BME280;39353;42.864;12.014;2022-09-21T03:26:00;97542.71;;;23.82;44.59
52653;BME280;39353;42.864;12.014;2022-09-21T03:28:43;97543.06;;;23.81;44.66
52653;BME280;39353;42.864;12.014;2022-09-21T03:31:10;97546.90;;;23.81;44.73
52653;BME280;39353;42.864;12.014;2022-09-21T03:33:37;97545.76;;;23.81;44.83
52653;BME280;39353;42.864;12.014;2022-09-21T03:36:19;97545.85;;;23.81;44.78
52653;BME280;39353;42.864;12.014;2022-09-21T03:39:00;97548.16;;;23.81;44.78
52653;BME280;39353;42.864;12.014;2022-09-21T03:41:41;97553.27;;;23.81;44.70
52653;BME280;39353;42.864;12.014;2022-09-21T03:44:24;97553.31;;;23.81;44.72
52653;BME280;39353;42.864;12.014;2022-09-21T03:46:53;97553.52;;;23.81;44.77
52653;BME280;39353;42.864;12.014;2022-09-21T03:49:20;97553.70;;;23.81;44.82
52653;BME280;39353;42.864;12.014;2022-09-21T03:52:02;97556.52;;;23.80;44.76
52653;BME280;39353;42.864;12.014;2022-09-21T03:54:29;97560.04;;;23.80;44.84
52653;BME280;39353;42.864;12.014;2022-09-21T03:56:56;97562.05;;;23.80;44.75
52653;BME280;39353;42.864;12.014;2022-09-21T03:59:37;97563.89;;;23.79;44.70
52653;BME280;39353;42.864;12.014;2022-09-21T04:02:05;97564.50;;;23.78;44.74
52653;BME280;39353;42.864;12.014;2022-09-21T04:04:32;97568.04;;;23.78;44.78
52653;BME280;39353;42.864;12.014;2022-09-21T04:07:00;97569.98;;;23.78;44.73
52653;BME280;39353;42.864;12.014;2022-09-21T04:09:41;97573.73;;;23.78;44.78
52653;BME280;39353;42.864;12.014;2022-09-21T04:12:23;97575.44;;;23.77;44.66
52653;BME280;39353;42.864;12.014;2022-09-21T04:14:51;97577.30;;;23.78;44.76
52653;BME280;39353;42.864;12.014;2022-09-21T04:17:34;97575.41;;;23.78;44.76
52653;BME280;39353;42.864;12.014;2022-09-21T04:20:21;97576.17;;;23.78;44.66
52653;BME280;39353;42.864;12.014;2022-09-21T04:23:03;97576.38;;;23.78;44.71
52653;BME280;39353;42.864;12.014;2022-09-21T04:25:30;97574.64;;;23.79;44.72
52653;BME280;39353;42.864;12.014;2022-09-21T04:28:11;97579.24;;;23.79;44.73
52653;BME280;39353;42.864;12.014;2022-09-21T04:30:53;97579.47;;;23.79;44.68
52653;BME280;39353;42.864;12.014;2022-09-21T04:33:35;97580.00;;;23.78;44.61
52653;BME280;39353;42.864;12.014;2022-09-21T04:36:02;97581.94;;;23.79;44.43
52653;BME280;39353;42.864;12.014;2022-09-21T04:38:44;97585.60;;;23.79;44.78
52653;BME280;39353;42.864;12.014;2022-09-21T04:41:12;97584.56;;;23.78;44.75
52653;BME280;39353;42.864;12.014;2022-09-21T04:43:44;97586.36;;;23.79;44.76
52653;BME280;39353;42.864;12.014;2022-09-21T04:46:25;97587.17;;;23.78;44.89
52653;BME280;39353;42.864;12.014;2022-09-21T04:49:06;97586.34;;;23.78;44.97
52653;BME280;39353;42.864;12.014;2022-09-21T04:51:48;97583.45;;;23.71;43.38
52653;BME280;39353;42.864;12.014;2022-09-21T04:54:29;97583.93;;;23.61;43.29
52653;BME280;39353;42.864;12.014;2022-09-21T04:57:12;97585.90;;;23.58;42.59
52653;BME280;39353;42.864;12.014;2022-09-21T04:59:57;97587.05;;;23.56;42.62
52653;BME280;39353;42.864;12.014;2022-09-21T05:02:26;97587.23;;;23.54;41.85
52653;BME280;39353;42.864;12.014;2022-09-21T05:05:07;97593.30;;;23.44;40.48
52653;BME280;39353;42.864;12.014;2022-09-21T05:07:48;97598.17;;;23.24;39.62
52653;BME280;39353;42.864;12.014;2022-09-21T05:10:30;97597.41;;;23.12;39.68
52653;BME280;39353;42.864;12.014;2022-09-21T05:13:12;97596.43;;;23.08;39.63
52653;BME280;39353;42.864;12.014;2022-09-21T05:15:39;97601.20;;;23.03;39.84
52653;BME280;39353;42.864;12.014;2022-09-21T05:18:06;97603.02;;;22.99;39.42
52653;BME280;39353;42.864;12.014;2022-09-21T05:20:33;97603.54;;;22.96;39.33
52653;BME280;39353;42.864;12.014;2022-09-21T05:23:14;97608.11;;;22.90;39.09
52653;BME280;39353;42.864;12.014;2022-09-21T05:25:42;97600.36;;;22.88;39.28
52653;BME280;39353;42.864;12.014;2022-09-21T05:28:25;97610.62;;;22.89;38.98
52653;BME280;39353;42.864;12.014;2022-09-21T05:34:02;97604.86;;;22.85;39.21
52653;BME280;39353;42.864;12.014;2022-09-21T05:36:54;97602.29;;;22.86;39.56
52653;BME280;39353;42.864;12.014;2022-09-21T05:39:38;97601.38;;;22.87;39.39
52653;BME280;39353;42.864;12.014;2022-09-21T05:42:19;97606.93;;;22.88;39.38
52653;BME280;39353;42.864;12.014;2022-09-21T05:45:01;97607.90;;;22.90;39.56
52653;BME280;39353;42.864;12.014;2022-09-21T05:48:05;97610.36;;;22.93;39.38
52653;BME280;39353;42.864;12.014;2022-09-21T05:54:04;97618.77;;;22.99;39.32
52653;BME280;39353;42.864;12.014;2022-09-21T06:03:04;97620.09;;;23.01;38.53
52653;BME280;39353;42.864;12.014;2022-09-21T06:05:51;97626.41;;;23.00;38.39
52653;BME280;39353;42.864;12.014;2022-09-21T06:08:18;97626.57;;;22.93;38.21
52653;BME280;39353;42.864;12.014;2022-09-21T06:11:00;97627.05;;;22.90;38.09
52653;BME280;39353;42.864;12.014;2022-09-21T06:13:27;97629.27;;;22.89;37.92
52653;BME280;39353;42.864;12.014;2022-09-21T06:16:09;97634.48;;;22.91;38.28
52653;BME280;39353;42.864;12.014;2022-09-21T06:18:38;97638.52;;;22.96;38.48
52653;BME280;39353;42.864;12.014;2022-09-21T06:21:07;97637.58;;;23.00;38.58
52653;BME280;39353;42.864;12.014;2022-09-21T06:23:34;97637.50;;;23.04;38.58
52653;BME280;39353;42.864;12.014;2022-09-21T06:26:03;97636.73;;;23.04;38.45
52653;BME280;39353;42.864;12.014;2022-09-21T06:28:44;97639.77;;;23.04;38.39
52653;BME280;39353;42.864;12.014;2022-09-21T06:31:26;97636.87;;;23.04;38.61
52653;BME280;39353;42.864;12.014;2022-09-21T06:33:55;97645.92;;;23.06;38.35
52653;BME280;39353;42.864;12.014;2022-09-21T06:36:36;97646.36;;;23.08;38.55
52653;BME280;39353;42.864;12.014;2022-09-21T06:39:03;97647.10;;;23.09;38.46
52653;BME280;39353;42.864;12.014;2022-09-21T06:41:44;97648.94;;;23.11;38.43
52653;BME280;39353;42.864;12.014;2022-09-21T06:44:25;97644.05;;;23.10;38.54
52653;BME280;39353;42.864;12.014;2022-09-21T06:47:06;97647.95;;;23.08;38.21
52653;BME280;39353;42.864;12.014;2022-09-21T06:49:34;97651.64;;;23.02;38.20
52653;BME280;39353;42.864;12.014;2022-09-21T06:52:01;97656.52;;;23.00;38.16
52653;BME280;39353;42.864;12.014;2022-09-21T06:54:27;97660.13;;;23.00;38.21
52653;BME280;39353;42.864;12.014;2022-09-21T06:57:09;97672.67;;;23.03;38.14
52653;BME280;39353;42.864;12.014;2022-09-21T06:59:38;97674.50;;;23.07;38.50
52653;BME280;39353;42.864;12.014;2022-09-21T07:02:19;97678.98;;;23.10;38.44
52653;BME280;39353;42.864;12.014;2022-09-21T07:05:02;97678.81;;;23.12;38.06
52653;BME280;39353;42.864;12.014;2022-09-21T07:07:43;97683.06;;;23.14;38.19
52653;BME280;39353;42.864;12.014;2022-09-21T07:10:12;97687.21;;;23.11;37.80
52653;BME280;39353;42.864;12.014;2022-09-21T07:12:39;97685.80;;;23.05;37.86
52653;BME280;39353;42.864;12.014;2022-09-21T07:15:11;97687.27;;;22.98;37.26
52653;BME280;39353;42.864;12.014;2022-09-21T07:17:39;97693.73;;;22.94;37.63
52653;BME280;39353;42.864;12.014;2022-09-21T07:20:20;97698.30;;;22.90;37.72
52653;BME280;39353;42.864;12.014;2022-09-21T07:23:10;97696.45;;;22.88;37.74
52653;BME280;39353;42.864;12.014;2022-09-21T07:25:51;97699.77;;;22.87;37.80
52653;BME280;39353;42.864;12.014;2022-09-21T07:28:18;97705.04;;;22.86;37.79
52653;BME280;39353;42.864;12.014;2022-09-21T07:30:45;97702.84;;;22.84;37.88
52653;BME280;39353;42.864;12.014;2022-09-21T07:33:12;97706.64;;;22.83;37.85
52653;BME280;39353;42.864;12.014;2022-09-21T07:35:54;97705.67;;;22.79;37.76
52653;BME280;39353;42.864;12.014;2022-09-21T07:38:24;97708.17;;;22.78;37.99
52653;BME280;39353;42.864;12.014;2022-09-21T07:40:51;97710.00;;;22.77;38.04
52653;BME280;39353;42.864;12.014;2022-09-21T07:43:32;97711.80;;;22.76;38.09
52653;BME280;39353;42.864;12.014;2022-09-21T07:46:00;97714.57;;;22.75;38.16
52653;BME280;39353;42.864;12.014;2022-09-21T07:48:44;97716.67;;;22.75;38.10
52653;BME280;39353;42.864;12.014;2022-09-21T07:51:13;97715.78;;;22.76;38.27
52653;BME280;39353;42.864;12.014;2022-09-21T07:53:42;97720.55;;;22.76;38.45
52653;BME280;39353;42.864;12.014;2022-09-21T07:56:14;97726.39;;;22.79;38.76
52653;BME280;39353;42.864;12.014;2022-09-21T07:58:42;97726.73;;;22.81;39.04
52653;BME280;39353;42.864;12.014;2022-09-21T08:01:43;97730.65;;;22.84;39.03
52653;BME280;39353;42.864;12.014;2022-09-21T08:04:10;97734.27;;;22.87;39.03
52653;BME280;39353;42.864;12.014;2022-09-21T08:06:38;97741.87;;;22.88;39.28
52653;BME280;39353;42.864;12.014;2022-09-21T08:09:19;97745.52;;;22.92;39.41
52653;BME280;39353;42.864;12.014;2022-09-21T08:12:00;97751.52;;;22.94;39.30
52653;BME280;39353;42.864;12.014;2022-09-21T08:14:28;97755.29;;;22.97;39.31
52653;BME280;39353;42.864;12.014;2022-09-21T08:16:55;97758.42;;;22.98;39.10
52653;BME280;39353;42.864;12.014;2022-09-21T08:19:36;97763.96;;;22.99;39.15
52653;BME280;39353;42.864;12.014;2022-09-21T08:22:04;97766.92;;;22.99;38.98
52653;BME280;39353;42.864;12.014;2022-09-21T08:24:46;97763.98;;;22.99;39.15
52653;BME280;39353;42.864;12.014;2022-09-21T08:27:27;97766.10;;;23.00;39.27
52653;BME280;39353;42.864;12.014;2022-09-21T08:29:55;97761.48;;;23.02;39.15
52653;BME280;39353;42.864;12.014;2022-09-21T08:32:23;97763.98;;;23.03;39.24
52653;BME280;39353;42.864;12.014;2022-09-21T08:34:51;97762.37;;;23.04;39.45
52653;BME280;39353;42.864;12.014;2022-09-21T08:37:33;97764.41;;;23.05;39.28
52653;BME280;39353;42.864;12.014;2022-09-21T08:40:03;97765.04;;;23.06;39.24
52653;BME280;39353;42.864;12.014;2022-09-21T08:45:20;97765.34;;;23.05;39.28
52653;BME280;39353;42.864;12.014;2022-09-21T08:48:12;97765.25;;;23.06;39.16
52653;BME280;39353;42.864;12.014;2022-09-21T08:51:00;97767.27;;;23.08;39.53
52653;BME280;39353;42.864;12.014;2022-09-21T08:53:45;97765.23;;;23.10;39.54
52653;BME280;39353;42.864;12.014;2022-09-21T08:56:15;97768.41;;;23.10;39.35
52653;BME280;39353;42.864;12.014;2022-09-21T08:58:56;97765.03;;;23.10;39.38
52653;BME280;39353;42.864;12.014;2022-09-21T09:01:53;97767.32;;;23.12;39.60
52653;BME280;39353;42.864;12.014;2022-09-21T09:04:33;97770.09;;;23.15;39.58
52653;BME280;39353;42.864;12.014;2022-09-21T09:20:56;97762.89;;;23.19;39.76
52653;BME280;39353;42.864;12.014;2022-09-21T09:23:33;97765.66;;;23.20;39.65
52653;BME280;39353;42.864;12.014;2022-09-21T09:26:58;97764.15;;;23.19;39.55
52653;BME280;39353;42.864;12.014;2022-09-21T09:32:34;97762.54;;;23.22;39.51
52653;BME280;39353;42.864;12.014;2022-09-21T09:38:33;97758.49;;;23.21;39.41
52653;BME280;39353;42.864;12.014;2022-09-21T09:41:27;97754.90;;;23.17;38.97
52653;BME280;39353;42.864;12.014;2022-09-21T09:52:35;97742.95;;;23.14;39.60
52653;BME280;39353;42.864;12.014;2022-09-21T09:55:26;97742.39;;;23.15;39.69
52653;BME280;39353;42.864;12.014;2022-09-21T09:57:56;97744.93;;;23.14;39.43
52653;BME280;39353;42.864;12.014;2022-09-21T10:00:24;97740.42;;;23.11;39.39
52653;BME280;39353;42.864;12.014;2022-09-21T10:02:54;97736.90;;;23.11;39.42
52653;BME280;39353;42.864;12.014;2022-09-21T10:05:35;97731.69;;;23.10;39.38
52653;BME280;39353;42.864;12.014;2022-09-21T10:11:13;97733.27;;;22.98;39.20
52653;BME280;39353;42.864;12.014;2022-09-21T10:14:07;97734.16;;;22.96;38.92
52653;BME280;39353;42.864;12.014;2022-09-21T10:16:40;97734.96;;;22.97;39.17
52653;BME280;39353;42.864;12.014;2022-09-21T10:19:24;97730.67;;;22.98;38.86
52653;BME280;39353;42.864;12.014;2022-09-21T10:21:57;97728.11;;;22.98;39.00
52653;BME280;39353;42.864;12.014;2022-09-21T10:24:38;97732.59;;;22.98;38.43
52653;BME280;39353;42.864;12.014;2022-09-21T10:29:44;97735.11;;;22.94;37.64
52653;BME280;39353;42.864;12.014;2022-09-21T10:38:18;97730.33;;;22.91;37.14
52653;BME280;39353;42.864;12.014;2022-09-21T10:40:59;97731.35;;;22.90;36.89
52653;BME280;39353;42.864;12.014;2022-09-21T10:43:42;97728.61;;;22.93;37.12
52653;BME280;39353;42.864;12.014;2022-09-21T10:46:34;97728.82;;;22.96;36.91
52653;BME280;39353;42.864;12.014;2022-09-21T10:49:26;97727.58;;;22.97;36.71
52653;BME280;39353;42.864;12.014;2022-09-21T10:51:57;97728.79;;;22.95;36.50
52653;BME280;39353;42.864;12.014;2022-09-21T10:54:32;97731.41;;;22.97;36.09
52653;BME280;39353;42.864;12.014;2022-09-21T10:57:09;97728.42;;;22.98;36.26
52653;BME280;39353;42.864;12.014;2022-09-21T10:59:55;97726.09;;;22.98;36.22
52653;BME280;39353;42.864;12.014;2022-09-21T11:02:37;97727.20;;;23.03;36.52
52653;BME280;39353;42.864;12.014;2022-09-21T11:05:20;97727.47;;;23.03;36.11
52653;BME280;39353;42.864;12.014;2022-09-21T11:08:14;97733.40;;;23.00;35.79
52653;BME280;39353;42.864;12.014;2022-09-21T11:13:47;97729.05;;;23.03;36.14
52653;BME280;39353;42.864;12.014;2022-09-21T11:16:40;97724.39;;;23.07;36.04
52653;BME280;39353;42.864;12.014;2022-09-21T11:38:38;97727.05;;;23.53;40.12
52653;BME280;39353;42.864;12.014;2022-09-21T11:44:50;97721.05;;;23.57;41.39
52653;BME280;39353;42.864;12.014;2022-09-21T11:50:42;97728.70;;;23.60;41.12
52653;BME280;39353;42.864;12.014;2022-09-21T11:53:37;97721.85;;;23.62;40.83
52653;BME280;39353;42.864;12.014;2022-09-21T12:11:01;97717.15;;;23.65;38.92
52653;BME280;39353;42.864;12.014;2022-09-21T12:17:12;97716.89;;;23.61;38.37
52653;BME280;39353;42.864;12.014;2022-09-21T12:19:47;97719.60;;;23.63;38.96
52653;BME280;39353;42.864;12.014;2022-09-21T12:22:36;97716.63;;;23.67;38.68
52653;BME280;39353;42.864;12.014;2022-09-21T12:25:23;97715.58;;;23.66;37.40
52653;BME280;39353;42.864;12.014;2022-09-21T12:28:00;97710.54;;;23.66;36.83
52653;BME280;39353;42.864;12.014;2022-09-21T12:30:48;97706.67;;;23.65;36.61
52653;BME280;39353;42.864;12.014;2022-09-21T12:36:21;97702.63;;;23.68;36.57
52653;BME280;39353;42.864;12.014;2022-09-21T12:39:00;97699.96;;;23.64;35.81
52653;BME280;39353;42.864;12.014;2022-09-21T12:42:02;97706.52;;;23.60;35.41
52653;BME280;39353;42.864;12.014;2022-09-21T12:44:42;97698.31;;;23.59;35.49
52653;BME280;39353;42.864;12.014;2022-09-21T12:53:27;97696.31;;;23.60;35.54
52653;BME280;39353;42.864;12.014;2022-09-21T12:59:36;97694.27;;;23.59;35.11
52653;BME280;39353;42.864;12.014;2022-09-21T13:08:08;97696.17;;;23.56;35.13
52653;BME280;39353;42.864;12.014;2022-09-21T13:11:03;97695.86;;;23.59;35.71
52653;BME280;39353;42.864;12.014;2022-09-21T13:13:42;97691.95;;;23.63;35.77
52653;BME280;39353;42.864;12.014;2022-09-21T13:16:40;97693.23;;;23.67;36.42
52653;BME280;39353;42.864;12.014;2022-09-21T13:19:24;97689.91;;;23.71;36.85
52653;BME280;39353;42.864;12.014;2022-09-21T13:25:06;97686.92;;;23.77;37.19
52653;BME280;39353;42.864;12.014;2022-09-21T13:28:18;97688.93;;;23.78;37.25
52653;BME280;39353;42.864;12.014;2022-09-21T13:34:05;97691.10;;;23.82;37.68
52653;BME280;39353;42.864;12.014;2022-09-21T13:48:17;97682.48;;;23.87;38.34
52653;BME280;39353;42.864;12.014;2022-09-21T13:51:06;97676.35;;;23.87;38.50
52653;BME280;39353;42.864;12.014;2022-09-21T13:53:38;97682.95;;;23.88;38.48
52653;BME280;39353;42.864;12.014;2022-09-21T13:56:25;97679.77;;;23.90;38.26
52653;BME280;39353;42.864;12.014;2022-09-21T13:58:55;97686.73;;;23.93;38.40
52653;BME280;39353;42.864;12.014;2022-09-21T14:01:38;97686.38;;;23.97;38.64
52653;BME280;39353;42.864;12.014;2022-09-21T14:04:29;97686.90;;;24.01;38.93
52653;BME280;39353;42.864;12.014;2022-09-21T14:07:05;97686.04;;;24.04;38.75
52653;BME280;39353;42.864;12.014;2022-09-21T14:10:00;97688.42;;;24.05;38.89
52653;BME280;39353;42.864;12.014;2022-09-21T14:12:37;97693.39;;;24.06;38.91
52653;BME280;39353;42.864;12.014;2022-09-21T14:21:14;97688.23;;;24.10;39.28
52653;BME280;39353;42.864;12.014;2022-09-21T14:24:18;97691.05;;;24.10;39.20
52653;BME280;39353;42.864;12.014;2022-09-21T14:27:02;97689.28;;;24.12;39.33
52653;BME280;39353;42.864;12.014;2022-09-21T14:29:50;97694.52;;;24.14;39.33
52653;BME280;39353;42.864;12.014;2022-09-21T14:32:44;97693.35;;;24.15;39.08
52653;BME280;39353;42.864;12.014;2022-09-21T14:35:23;97694.23;;;24.18;39.08
52653;BME280;39353;42.864;12.014;2022-09-21T14:38:00;97694.03;;;24.19;39.29
52653;BME280;39353;42.864;12.014;2022-09-21T14:40:48;97689.39;;;24.20;39.23
52653;BME280;39353;42.864;12.014;2022-09-21T14:43:33;97691.17;;;24.21;39.02
52653;BME280;39353;42.864;12.014;2022-09-21T14:55:20;97690.71;;;24.29;38.97
52653;BME280;39353;42.864;12.014;2022-09-21T15:19:34;97686.66;;;24.10;35.66
52653;BME280;39353;42.864;12.014;2022-09-21T15:22:20;97690.78;;;24.05;34.73
52653;BME280;39353;42.864;12.014;2022-09-21T15:24:50;97687.41;;;24.01;34.92
52653;BME280;39353;42.864;12.014;2022-09-21T15:27:32;97693.08;;;24.00;34.99
52653;BME280;39353;42.864;12.014;2022-09-21T15:30:27;97690.67;;;23.95;34.52
52653;BME280;39353;42.864;12.014;2022-09-21T15:33:03;97695.05;;;23.93;34.53
52653;BME280;39353;42.864;12.014;2022-09-21T15:35:33;97695.61;;;23.93;34.91
52653;BME280;39353;42.864;12.014;2022-09-21T15:38:30;97694.48;;;23.92;34.49
52653;BME280;39353;42.864;12.014;2022-09-21T15:44:22;97696.84;;;23.87;34.09
52653;BME280;39353;42.864;12.014;2022-09-21T15:46:53;97694.38;;;23.84;34.39
52653;BME280;39353;42.864;12.014;2022-09-21T15:49:27;97696.90;;;23.85;34.85
52653;BME280;39353;42.864;12.014;2022-09-21T15:54:51;97698.92;;;23.87;35.19
52653;BME280;39353;42.864;12.014;2022-09-21T16:00:20;97700.50;;;23.88;35.13
52653;BME280;39353;42.864;12.014;2022-09-21T16:03:21;97699.85;;;23.86;34.49
52653;BME280;39353;42.864;12.014;2022-09-21T16:06:26;97703.39;;;23.80;33.65
52653;BME280;39353;42.864;12.014;2022-09-21T16:08:53;97703.77;;;23.71;33.41
52653;BME280;39353;42.864;12.014;2022-09-21T16:11:35;97710.31;;;23.69;33.53
52653;BME280;39353;42.864;12.014;2022-09-21T16:14:07;97707.63;;;23.61;33.37
52653;BME280;39353;42.864;12.014;2022-09-21T16:22:45;97719.75;;;23.62;35.02
52653;BME280;39353;42.864;12.014;2022-09-21T16:25:35;97718.86;;;23.57;34.92
52653;BME280;39353;42.864;12.014;2022-09-21T16:28:23;97720.20;;;23.55;35.11
52653;BME280;39353;42.864;12.014;2022-09-21T16:31:30;97723.66;;;23.53;35.16
52653;BME280;39353;42.864;12.014;2022-09-21T16:34:00;97721.44;;;23.54;35.51
52653;BME280;39353;42.864;12.014;2022-09-21T16:36:44;97726.01;;;23.55;35.71
52653;BME280;39353;42.864;12.014;2022-09-21T16:39:25;97733.91;;;23.56;35.85
52653;BME280;39353;42.864;12.014;2022-09-21T16:41:56;97734.05;;;23.57;35.82
52653;BME280;39353;42.864;12.014;2022-09-21T16:44:41;97741.38;;;23.57;35.77
52653;BME280;39353;42.864;12.014;2022-09-21T16:47:27;97741.79;;;23.55;35.51
52653;BME280;39353;42.864;12.014;2022-09-21T16:49:57;97740.52;;;23.50;35.84
52653;BME280;39353;42.864;12.014;2022-09-21T16:52:29;97745.02;;;23.49;35.97
52653;BME280;39353;42.864;12.014;2022-09-21T16:54:58;97743.41;;;23.48;35.74
52653;BME280;39353;42.864;12.014;2022-09-21T16:57:40;97749.15;;;23.50;36.11
52653;BME280;39353;42.864;12.014;2022-09-21T17:00:30;97747.29;;;23.50;36.25
52653;BME280;39353;42.864;12.014;2022-09-21T17:03:15;97746.28;;;23.51;36.15
52653;BME280;39353;42.864;12.014;2022-09-21T17:05:43;97749.05;;;23.49;36.19
52653;BME280;39353;42.864;12.014;2022-09-21T17:08:11;97748.70;;;23.49;36.17
52653;BME280;39353;42.864;12.014;2022-09-21T17:10:42;97750.17;;;23.49;36.42
52653;BME280;39353;42.864;12.014;2022-09-21T17:13:23;97748.06;;;23.50;36.28
52653;BME280;39353;42.864;12.014;2022-09-21T17:16:05;97755.23;;;23.40;36.05
52653;BME280;39353;42.864;12.014;2022-09-21T17:18:49;97751.85;;;23.41;36.79
52653;BME280;39353;42.864;12.014;2022-09-21T17:21:30;97756.35;;;23.48;36.81
52653;BME280;39353;42.864;12.014;2022-09-21T17:24:12;97761.14;;;23.54;37.21